sensor_id;sensor_type;location;lat;lon;timestamp;P1;durP1;ratioP1;P2;durP2;ratioP2
26086;SDS011;13851;43.434;28.338;2022-12-18T00:01:21;10.18;;;9.07;;
26086;SDS011;13851;43.434;28.338;2022-12-18T00:03:52;11.13;;;8.68;;
26086;SDS011;13851;43.434;28.338;2022-12-18T00:06:19;12.77;;;8.43;;
26086;SDS011;13851;43.434;28.338;2022-12-18T00:08:46;8.73;;;7.82;;
26086;SDS011;13851;43.434;28.338;2022-12-18T00:11:12;9.00;;;8.10;;
26086;SDS011;13851;43.434;28.338;2022-12-18T00:13:42;9.75;;;8.75;;
26086;SDS011;13851;43.434;28.338;2022-12-18T00:16:12;9.80;;;8.38;;
26086;SDS011;13851;43.434;28.338;2022-12-18T00:18:40;8.65;;;7.82;;
26086;SDS011;13851;43.434;28.338;2022-12-18T00:21:07;9.60;;;8.57;;
26086;SDS011;13851;43.434;28.338;2022-12-18T00:23:35;8.30;;;7.50;;
26086;SDS011;13851;43.434;28.338;2022-12-18T00:26:03;10.77;;;8.30;;
26086;SDS011;13851;43.434;28.338;2022-12-18T00:28:34;8.80;;;7.90;;
26086;SDS011;13851;43.434;28.338;2022-12-18T00:31:10;12.00;;;7.60;;
26086;SDS011;13851;43.434;28.338;2022-12-18T00:33:37;8.55;;;7.68;;
26086;SDS011;13851;43.434;28.338;2022-12-18T00:36:04;9.50;;;7.90;;
26086;SDS011;13851;43.434;28.338;2022-12-18T00:38:31;8.65;;;7.75;;
26086;SDS011;13851;43.434;28.338;2022-12-18T00:40:57;8.25;;;7.45;;
26086;SDS011;13851;43.434;28.338;2022-12-18T00:43:23;10.23;;;7.80;;
26086;SDS011;13851;43.434;28.338;2022-12-18T00:45:52;7.85;;;7.15;;
26086;SDS011;13851;43.434;28.338;2022-12-18T00:48:18;7.93;;;7.13;;
26086;SDS011;13851;43.434;28.338;2022-12-18T00:50:43;8.18;;;7.43;;
26086;SDS011;13851;43.434;28.338;2022-12-18T00:53:09;8.05;;;7.25;;
26086;SDS011;13851;43.434;28.338;2022-12-18T00:55:36;7.32;;;6.63;;
26086;SDS011;13851;43.434;28.338;2022-12-18T00:58:03;7.88;;;7.00;;
26086;SDS011;13851;43.434;28.338;2022-12-18T01:00:28;7.38;;;6.63;;
26086;SDS011;13851;43.434;28.338;2022-12-18T01:02:54;7.60;;;6.78;;
26086;SDS011;13851;43.434;28.338;2022-12-18T01:05:19;6.65;;;6.05;;
26086;SDS011;13851;43.434;28.338;2022-12-18T01:07:45;6.68;;;6.00;;
26086;SDS011;13851;43.434;28.338;2022-12-18T01:10:11;6.88;;;6.22;;
26086;SDS011;13851;43.434;28.338;2022-12-18T01:12:37;6.50;;;5.90;;
26086;SDS011;13851;43.434;28.338;2022-12-18T01:15:03;6.45;;;5.80;;
26086;SDS011;13851;43.434;28.338;2022-12-18T01:17:28;6.47;;;5.80;;
26086;SDS011;13851;43.434;28.338;2022-12-18T01:19:54;6.53;;;5.93;;
26086;SDS011;13851;43.434;28.338;2022-12-18T01:22:19;7.10;;;6.40;;
26086;SDS011;13851;43.434;28.338;2022-12-18T01:24:45;7.03;;;6.32;;
26086;SDS011;13851;43.434;28.338;2022-12-18T01:27:11;7.00;;;6.30;;
26086;SDS011;13851;43.434;28.338;2022-12-18T01:29:36;7.05;;;6.40;;
26086;SDS011;13851;43.434;28.338;2022-12-18T01:32:02;9.90;;;7.05;;
26086;SDS011;13851;43.434;28.338;2022-12-18T01:34:27;7.90;;;7.20;;
26086;SDS011;13851;43.434;28.338;2022-12-18T01:36:53;8.40;;;7.60;;
26086;SDS011;13851;43.434;28.338;2022-12-18T01:39:18;8.85;;;7.95;;
26086;SDS011;13851;43.434;28.338;2022-12-18T01:41:44;9.70;;;8.50;;
26086;SDS011;13851;43.434;28.338;2022-12-18T01:50:08;9.70;;;8.52;;
26086;SDS011;13851;43.434;28.338;2022-12-18T01:53:16;8.55;;;7.68;;
26086;SDS011;13851;43.434;28.338;2022-12-18T01:55:57;9.43;;;7.87;;
26086;SDS011;13851;43.434;28.338;2022-12-18T01:58:29;8.57;;;7.72;;
26086;SDS011;13851;43.434;28.338;2022-12-18T02:01:09;7.97;;;7.15;;
26086;SDS011;13851;43.434;28.338;2022-12-18T02:03:35;7.75;;;7.00;;
26086;SDS011;13851;43.434;28.338;2022-12-18T02:06:05;7.70;;;6.85;;
26086;SDS011;13851;43.434;28.338;2022-12-18T02:08:34;7.63;;;6.93;;
26086;SDS011;13851;43.434;28.338;2022-12-18T02:11:28;7.38;;;6.68;;
26086;SDS011;13851;43.434;28.338;2022-12-18T02:27:56;8.23;;;7.03;;
26086;SDS011;13851;43.434;28.338;2022-12-18T02:30:26;7.72;;;6.93;;
26086;SDS011;13851;43.434;28.338;2022-12-18T02:32:54;7.53;;;6.82;;
26086;SDS011;13851;43.434;28.338;2022-12-18T02:35:22;8.10;;;7.10;;
26086;SDS011;13851;43.434;28.338;2022-12-18T02:37:53;8.73;;;6.95;;
26086;SDS011;13851;43.434;28.338;2022-12-18T02:40:20;8.20;;;7.13;;
26086;SDS011;13851;43.434;28.338;2022-12-18T02:42:48;11.38;;;8.18;;
26086;SDS011;13851;43.434;28.338;2022-12-18T02:45:14;8.50;;;7.70;;
26086;SDS011;13851;43.434;28.338;2022-12-18T02:47:40;8.40;;;7.35;;
26086;SDS011;13851;43.434;28.338;2022-12-18T03:01:21;8.65;;;7.78;;
26086;SDS011;13851;43.434;28.338;2022-12-18T03:04:01;9.15;;;8.25;;
26086;SDS011;13851;43.434;28.338;2022-12-18T03:06:38;8.55;;;7.22;;
26086;SDS011;13851;43.434;28.338;2022-12-18T03:09:10;7.93;;;7.13;;
26086;SDS011;13851;43.434;28.338;2022-12-18T03:11:42;8.63;;;7.55;;
26086;SDS011;13851;43.434;28.338;2022-12-18T03:14:33;8.13;;;7.32;;
26086;SDS011;13851;43.434;28.338;2022-12-18T03:19:31;8.40;;;7.60;;
26086;SDS011;13851;43.434;28.338;2022-12-18T03:22:01;7.82;;;7.10;;
26086;SDS011;13851;43.434;28.338;2022-12-18T03:24:29;8.65;;;6.95;;
26086;SDS011;13851;43.434;28.338;2022-12-18T03:27:02;8.70;;;7.72;;
26086;SDS011;13851;43.434;28.338;2022-12-18T03:29:37;8.50;;;7.60;;
26086;SDS011;13851;43.434;28.338;2022-12-18T03:32:09;8.30;;;7.55;;
26086;SDS011;13851;43.434;28.338;2022-12-18T03:34:40;9.32;;;7.82;;
26086;SDS011;13851;43.434;28.338;2022-12-18T03:37:07;22.63;;;18.05;;
26086;SDS011;13851;43.434;28.338;2022-12-18T03:39:35;12.48;;;8.77;;
26086;SDS011;13851;43.434;28.338;2022-12-18T03:42:05;10.23;;;9.20;;
26086;SDS011;13851;43.434;28.338;2022-12-18T03:44:37;10.82;;;9.73;;
26086;SDS011;13851;43.434;28.338;2022-12-18T03:52:24;10.25;;;8.88;;
26086;SDS011;13851;43.434;28.338;2022-12-18T03:54:55;9.77;;;8.68;;
26086;SDS011;13851;43.434;28.338;2022-12-18T03:57:24;10.40;;;9.40;;
26086;SDS011;13851;43.434;28.338;2022-12-18T04:00:00;9.65;;;8.68;;
26086;SDS011;13851;43.434;28.338;2022-12-18T04:02:29;9.73;;;8.82;;
26086;SDS011;13851;43.434;28.338;2022-12-18T04:04:58;10.20;;;9.07;;
26086;SDS011;13851;43.434;28.338;2022-12-18T04:07:27;9.98;;;9.02;;
26086;SDS011;13851;43.434;28.338;2022-12-18T04:09:55;9.70;;;8.68;;
26086;SDS011;13851;43.434;28.338;2022-12-18T04:12:26;9.77;;;8.88;;
26086;SDS011;13851;43.434;28.338;2022-12-18T04:14:54;10.15;;;9.18;;
26086;SDS011;13851;43.434;28.338;2022-12-18T04:17:20;12.43;;;10.10;;
26086;SDS011;13851;43.434;28.338;2022-12-18T04:19:46;12.55;;;9.57;;
26086;SDS011;13851;43.434;28.338;2022-12-18T04:22:12;11.07;;;9.98;;
26086;SDS011;13851;43.434;28.338;2022-12-18T04:24:37;11.05;;;9.95;;
26086;SDS011;13851;43.434;28.338;2022-12-18T04:27:03;11.60;;;10.35;;
26086;SDS011;13851;43.434;28.338;2022-12-18T04:29:29;13.18;;;11.60;;
26086;SDS011;13851;43.434;28.338;2022-12-18T04:31:54;12.68;;;11.43;;
26086;SDS011;13851;43.434;28.338;2022-12-18T04:34:20;13.32;;;11.90;;
26086;SDS011;13851;43.434;28.338;2022-12-18T04:36:46;12.75;;;11.45;;
26086;SDS011;13851;43.434;28.338;2022-12-18T04:39:11;12.02;;;10.85;;
26086;SDS011;13851;43.434;28.338;2022-12-18T04:41:37;14.48;;;13.00;;
26086;SDS011;13851;43.434;28.338;2022-12-18T04:44:03;13.05;;;11.65;;
26086;SDS011;13851;43.434;28.338;2022-12-18T04:46:29;13.30;;;11.90;;
26086;SDS011;13851;43.434;28.338;2022-12-18T04:48:55;14.40;;;12.45;;
26086;SDS011;13851;43.434;28.338;2022-12-18T04:51:20;14.10;;;12.70;;
26086;SDS011;13851;43.434;28.338;2022-12-18T04:53:46;14.25;;;12.75;;
26086;SDS011;13851;43.434;28.338;2022-12-18T04:56:13;13.73;;;12.20;;
26086;SDS011;13851;43.434;28.338;2022-12-18T04:58:40;15.40;;;12.60;;
26086;SDS011;13851;43.434;28.338;2022-12-18T05:01:07;14.98;;;12.70;;
26086;SDS011;13851;43.434;28.338;2022-12-18T05:03:34;15.82;;;14.07;;
26086;SDS011;13851;43.434;28.338;2022-12-18T05:06:00;16.13;;;14.38;;
26086;SDS011;13851;43.434;28.338;2022-12-18T05:08:26;18.63;;;15.23;;
26086;SDS011;13851;43.434;28.338;2022-12-18T05:11:02;17.05;;;15.25;;
26086;SDS011;13851;43.434;28.338;2022-12-18T05:13:31;18.70;;;15.70;;
26086;SDS011;13851;43.434;28.338;2022-12-18T05:16:01;17.92;;;15.57;;
26086;SDS011;13851;43.434;28.338;2022-12-18T05:18:27;20.33;;;16.27;;
26086;SDS011;13851;43.434;28.338;2022-12-18T05:20:57;17.97;;;15.23;;
26086;SDS011;13851;43.434;28.338;2022-12-18T05:23:23;17.65;;;15.70;;
26086;SDS011;13851;43.434;28.338;2022-12-18T05:25:56;17.25;;;15.45;;
26086;SDS011;13851;43.434;28.338;2022-12-18T05:28:27;20.73;;;17.42;;
26086;SDS011;13851;43.434;28.338;2022-12-18T05:30:55;21.02;;;17.88;;
26086;SDS011;13851;43.434;28.338;2022-12-18T05:33:23;22.05;;;17.90;;
26086;SDS011;13851;43.434;28.338;2022-12-18T05:35:54;22.20;;;19.05;;
26086;SDS011;13851;43.434;28.338;2022-12-18T05:40:47;27.13;;;22.38;;
26086;SDS011;13851;43.434;28.338;2022-12-18T05:43:13;27.52;;;22.50;;
26086;SDS011;13851;43.434;28.338;2022-12-18T05:45:39;31.02;;;23.25;;
26086;SDS011;13851;43.434;28.338;2022-12-18T05:48:05;28.13;;;22.45;;
26086;SDS011;13851;43.434;28.338;2022-12-18T05:50:34;29.60;;;23.42;;
26086;SDS011;13851;43.434;28.338;2022-12-18T05:53:01;31.10;;;24.00;;
26086;SDS011;13851;43.434;28.338;2022-12-18T05:55:27;28.98;;;22.92;;
26086;SDS011;13851;43.434;28.338;2022-12-18T05:57:52;29.92;;;24.73;;
26086;SDS011;13851;43.434;28.338;2022-12-18T06:00:18;33.13;;;23.70;;
26086;SDS011;13851;43.434;28.338;2022-12-18T06:02:46;31.00;;;22.83;;
26086;SDS011;13851;43.434;28.338;2022-12-18T06:05:12;34.30;;;25.48;;
26086;SDS011;13851;43.434;28.338;2022-12-18T06:07:37;32.42;;;25.35;;
26086;SDS011;13851;43.434;28.338;2022-12-18T06:10:03;34.00;;;24.67;;
26086;SDS011;13851;43.434;28.338;2022-12-18T06:12:28;34.08;;;26.17;;
26086;SDS011;13851;43.434;28.338;2022-12-18T06:14:54;35.20;;;26.48;;
26086;SDS011;13851;43.434;28.338;2022-12-18T06:17:19;36.00;;;26.98;;
26086;SDS011;13851;43.434;28.338;2022-12-18T06:19:45;39.72;;;28.05;;
26086;SDS011;13851;43.434;28.338;2022-12-18T06:22:10;37.78;;;28.13;;
26086;SDS011;13851;43.434;28.338;2022-12-18T06:24:36;35.17;;;25.77;;
26086;SDS011;13851;43.434;28.338;2022-12-18T06:27:01;34.95;;;25.77;;
26086;SDS011;13851;43.434;28.338;2022-12-18T06:29:27;36.55;;;25.67;;
26086;SDS011;13851;43.434;28.338;2022-12-18T06:31:52;26.52;;;22.48;;
26086;SDS011;13851;43.434;28.338;2022-12-18T06:34:18;28.20;;;23.73;;
26086;SDS011;13851;43.434;28.338;2022-12-18T06:36:43;28.13;;;22.50;;
26086;SDS011;13851;43.434;28.338;2022-12-18T06:39:09;44.45;;;35.03;;
26086;SDS011;13851;43.434;28.338;2022-12-18T06:41:34;44.15;;;37.03;;
26086;SDS011;13851;43.434;28.338;2022-12-18T06:44:00;30.83;;;26.40;;
26086;SDS011;13851;43.434;28.338;2022-12-18T06:46:26;26.63;;;23.10;;
26086;SDS011;13851;43.434;28.338;2022-12-18T06:48:51;28.08;;;22.30;;
26086;SDS011;13851;43.434;28.338;2022-12-18T06:51:23;32.85;;;24.30;;
26086;SDS011;13851;43.434;28.338;2022-12-18T06:53:49;27.25;;;21.10;;
26086;SDS011;13851;43.434;28.338;2022-12-18T06:56:15;24.77;;;20.38;;
26086;SDS011;13851;43.434;28.338;2022-12-18T06:58:41;27.13;;;20.75;;
26086;SDS011;13851;43.434;28.338;2022-12-18T07:01:08;28.02;;;23.80;;
26086;SDS011;13851;43.434;28.338;2022-12-18T07:03:35;27.15;;;22.98;;
26086;SDS011;13851;43.434;28.338;2022-12-18T07:06:02;27.55;;;22.20;;
26086;SDS011;13851;43.434;28.338;2022-12-18T07:08:28;26.20;;;21.60;;
26086;SDS011;13851;43.434;28.338;2022-12-18T07:10:55;30.60;;;24.20;;
26086;SDS011;13851;43.434;28.338;2022-12-18T07:13:20;27.85;;;22.13;;
26086;SDS011;13851;43.434;28.338;2022-12-18T07:15:46;27.20;;;22.40;;
26086;SDS011;13851;43.434;28.338;2022-12-18T07:18:11;29.60;;;23.60;;
26086;SDS011;13851;43.434;28.338;2022-12-18T07:20:37;29.95;;;24.70;;
26086;SDS011;13851;43.434;28.338;2022-12-18T07:23:03;29.13;;;23.98;;
26086;SDS011;13851;43.434;28.338;2022-12-18T07:25:30;29.33;;;24.30;;
26086;SDS011;13851;43.434;28.338;2022-12-18T07:27:59;30.50;;;24.60;;
26086;SDS011;13851;43.434;28.338;2022-12-18T07:30:25;30.92;;;23.88;;
26086;SDS011;13851;43.434;28.338;2022-12-18T07:32:50;32.10;;;25.52;;
26086;SDS011;13851;43.434;28.338;2022-12-18T07:35:16;30.83;;;25.05;;
26086;SDS011;13851;43.434;28.338;2022-12-18T07:37:41;29.35;;;24.77;;
26086;SDS011;13851;43.434;28.338;2022-12-18T07:40:07;32.63;;;24.80;;
26086;SDS011;13851;43.434;28.338;2022-12-18T07:42:33;30.95;;;25.65;;
26086;SDS011;13851;43.434;28.338;2022-12-18T07:45:00;33.00;;;25.80;;
26086;SDS011;13851;43.434;28.338;2022-12-18T07:47:26;32.03;;;26.30;;
26086;SDS011;13851;43.434;28.338;2022-12-18T07:49:54;32.03;;;26.02;;
26086;SDS011;13851;43.434;28.338;2022-12-18T07:52:20;32.47;;;25.67;;
26086;SDS011;13851;43.434;28.338;2022-12-18T07:54:46;30.23;;;24.08;;
26086;SDS011;13851;43.434;28.338;2022-12-18T07:57:17;32.20;;;24.92;;
26086;SDS011;13851;43.434;28.338;2022-12-18T07:59:42;31.85;;;24.70;;
26086;SDS011;13851;43.434;28.338;2022-12-18T08:02:08;35.08;;;25.73;;
26086;SDS011;13851;43.434;28.338;2022-12-18T08:04:34;34.80;;;25.75;;
26086;SDS011;13851;43.434;28.338;2022-12-18T08:06:59;29.45;;;24.70;;
26086;SDS011;13851;43.434;28.338;2022-12-18T08:09:25;30.90;;;25.77;;
26086;SDS011;13851;43.434;28.338;2022-12-18T08:11:50;34.28;;;26.60;;
26086;SDS011;13851;43.434;28.338;2022-12-18T08:14:16;27.80;;;23.90;;
26086;SDS011;13851;43.434;28.338;2022-12-18T08:16:41;32.22;;;25.00;;
26086;SDS011;13851;43.434;28.338;2022-12-18T08:19:10;33.78;;;26.60;;
26086;SDS011;13851;43.434;28.338;2022-12-18T08:21:36;32.83;;;24.98;;
26086;SDS011;13851;43.434;28.338;2022-12-18T08:24:02;32.35;;;25.25;;
26086;SDS011;13851;43.434;28.338;2022-12-18T08:26:28;30.33;;;25.27;;
26086;SDS011;13851;43.434;28.338;2022-12-18T08:28:56;32.10;;;24.33;;
26086;SDS011;13851;43.434;28.338;2022-12-18T08:31:23;30.75;;;23.52;;
26086;SDS011;13851;43.434;28.338;2022-12-18T08:33:50;30.70;;;24.63;;
26086;SDS011;13851;43.434;28.338;2022-12-18T08:36:17;34.47;;;25.27;;
26086;SDS011;13851;43.434;28.338;2022-12-18T08:38:44;29.80;;;24.00;;
26086;SDS011;13851;43.434;28.338;2022-12-18T08:41:10;32.55;;;25.38;;
26086;SDS011;13851;43.434;28.338;2022-12-18T08:43:37;29.58;;;23.77;;
26086;SDS011;13851;43.434;28.338;2022-12-18T08:46:22;28.13;;;24.33;;
26086;SDS011;13851;43.434;28.338;2022-12-18T08:48:50;32.03;;;25.23;;
26086;SDS011;13851;43.434;28.338;2022-12-18T08:51:16;32.38;;;25.80;;
26086;SDS011;13851;43.434;28.338;2022-12-18T08:53:42;32.83;;;25.73;;
26086;SDS011;13851;43.434;28.338;2022-12-18T08:56:12;33.85;;;24.60;;
26086;SDS011;13851;43.434;28.338;2022-12-18T08:58:38;32.97;;;24.90;;
26086;SDS011;13851;43.434;28.338;2022-12-18T09:01:06;33.33;;;25.00;;
26086;SDS011;13851;43.434;28.338;2022-12-18T09:03:37;33.03;;;25.38;;
26086;SDS011;13851;43.434;28.338;2022-12-18T09:06:03;34.10;;;25.23;;
26086;SDS011;13851;43.434;28.338;2022-12-18T09:08:29;30.23;;;24.65;;
26086;SDS011;13851;43.434;28.338;2022-12-18T09:10:55;35.63;;;25.13;;
26086;SDS011;13851;43.434;28.338;2022-12-18T09:13:20;35.40;;;26.35;;
26086;SDS011;13851;43.434;28.338;2022-12-18T09:15:47;30.63;;;24.92;;
26086;SDS011;13851;43.434;28.338;2022-12-18T09:18:15;31.45;;;24.42;;
26086;SDS011;13851;43.434;28.338;2022-12-18T09:20:41;28.40;;;24.35;;
26086;SDS011;13851;43.434;28.338;2022-12-18T09:23:07;30.95;;;24.52;;
26086;SDS011;13851;43.434;28.338;2022-12-18T09:25:34;32.30;;;25.00;;
26086;SDS011;13851;43.434;28.338;2022-12-18T09:28:01;33.20;;;25.35;;
26086;SDS011;13851;43.434;28.338;2022-12-18T09:30:27;32.67;;;25.40;;
26086;SDS011;13851;43.434;28.338;2022-12-18T09:32:53;31.63;;;25.25;;
26086;SDS011;13851;43.434;28.338;2022-12-18T09:35:18;32.75;;;26.15;;
26086;SDS011;13851;43.434;28.338;2022-12-18T09:37:44;28.33;;;23.70;;
26086;SDS011;13851;43.434;28.338;2022-12-18T09:40:14;30.80;;;24.15;;
26086;SDS011;13851;43.434;28.338;2022-12-18T09:42:41;25.60;;;22.70;;
26086;SDS011;13851;43.434;28.338;2022-12-18T09:45:15;29.33;;;22.52;;
26086;SDS011;13851;43.434;28.338;2022-12-18T09:47:42;27.60;;;21.60;;
26086;SDS011;13851;43.434;28.338;2022-12-18T09:50:30;26.40;;;21.35;;
26086;SDS011;13851;43.434;28.338;2022-12-18T09:53:04;23.65;;;19.67;;
26086;SDS011;13851;43.434;28.338;2022-12-18T09:55:39;22.98;;;18.00;;
26086;SDS011;13851;43.434;28.338;2022-12-18T09:58:19;19.45;;;16.45;;
26086;SDS011;13851;43.434;28.338;2022-12-18T10:00:55;22.52;;;16.48;;
26086;SDS011;13851;43.434;28.338;2022-12-18T10:03:21;18.42;;;15.27;;
26086;SDS011;13851;43.434;28.338;2022-12-18T10:06:00;18.35;;;16.02;;
26086;SDS011;13851;43.434;28.338;2022-12-18T10:13:45;17.15;;;15.38;;
26086;SDS011;13851;43.434;28.338;2022-12-18T10:21:50;17.52;;;15.73;;
26086;SDS011;13851;43.434;28.338;2022-12-18T10:27:16;16.00;;;14.40;;
26086;SDS011;13851;43.434;28.338;2022-12-18T10:29:46;14.77;;;13.27;;
26086;SDS011;13851;43.434;28.338;2022-12-18T10:32:19;13.70;;;12.30;;
26086;SDS011;13851;43.434;28.338;2022-12-18T10:34:48;15.57;;;11.48;;
26086;SDS011;13851;43.434;28.338;2022-12-18T10:37:16;16.80;;;12.10;;
26086;SDS011;13851;43.434;28.338;2022-12-18T10:39:44;12.57;;;11.32;;
26086;SDS011;13851;43.434;28.338;2022-12-18T10:42:16;11.93;;;10.52;;
26086;SDS011;13851;43.434;28.338;2022-12-18T10:44:43;11.93;;;9.73;;
26086;SDS011;13851;43.434;28.338;2022-12-18T10:47:11;12.32;;;10.23;;
26086;SDS011;13851;43.434;28.338;2022-12-18T10:54:47;9.98;;;8.13;;
26086;SDS011;13851;43.434;28.338;2022-12-18T10:57:15;10.33;;;8.53;;
26086;SDS011;13851;43.434;28.338;2022-12-18T11:00:23;10.82;;;7.78;;
26086;SDS011;13851;43.434;28.338;2022-12-18T11:02:52;9.23;;;8.25;;
26086;SDS011;13851;43.434;28.338;2022-12-18T11:05:36;9.02;;;8.13;;
26086;SDS011;13851;43.434;28.338;2022-12-18T11:08:02;10.77;;;8.70;;
26086;SDS011;13851;43.434;28.338;2022-12-18T11:12:57;14.02;;;9.82;;
26086;SDS011;13851;43.434;28.338;2022-12-18T11:15:54;14.02;;;9.75;;
26086;SDS011;13851;43.434;28.338;2022-12-18T11:21:06;11.95;;;10.32;;
26086;SDS011;13851;43.434;28.338;2022-12-18T11:23:34;11.60;;;10.40;;
26086;SDS011;13851;43.434;28.338;2022-12-18T11:26:02;14.80;;;11.30;;
26086;SDS011;13851;43.434;28.338;2022-12-18T11:31:24;14.73;;;11.38;;
26086;SDS011;13851;43.434;28.338;2022-12-18T11:36:40;12.75;;;11.52;;
26086;SDS011;13851;43.434;28.338;2022-12-18T11:39:20;12.77;;;11.32;;
26086;SDS011;13851;43.434;28.338;2022-12-18T11:41:59;15.85;;;11.20;;
26086;SDS011;13851;43.434;28.338;2022-12-18T11:44:50;15.73;;;11.95;;
26086;SDS011;13851;43.434;28.338;2022-12-18T11:47:42;18.08;;;12.15;;
26086;SDS011;13851;43.434;28.338;2022-12-18T11:50:24;14.40;;;11.93;;
26086;SDS011;13851;43.434;28.338;2022-12-18T11:53:10;15.88;;;11.02;;
26086;SDS011;13851;43.434;28.338;2022-12-18T11:55:40;15.10;;;11.75;;
26086;SDS011;13851;43.434;28.338;2022-12-18T11:58:34;15.85;;;11.90;;
26086;SDS011;13851;43.434;28.338;2022-12-18T12:09:19;18.65;;;12.82;;
26086;SDS011;13851;43.434;28.338;2022-12-18T12:22:55;15.38;;;13.52;;
26086;SDS011;13851;43.434;28.338;2022-12-18T12:28:08;17.42;;;14.00;;
26086;SDS011;13851;43.434;28.338;2022-12-18T12:31:07;16.33;;;13.45;;
26086;SDS011;13851;43.434;28.338;2022-12-18T12:39:18;15.05;;;13.45;;
26086;SDS011;13851;43.434;28.338;2022-12-18T12:41:48;17.90;;;14.25;;
26086;SDS011;13851;43.434;28.338;2022-12-18T12:44:43;17.40;;;14.30;;
